sensor_id;sensor_type;location;lat;lon;timestamp;P1;durP1;ratioP1;P2;durP2;ratioP2
20391;SDS011;10355;53.688;10.078;2022-09-13T00:01:02;2.30;;;1.67;;
20391;SDS011;10355;53.688;10.078;2022-09-13T00:03:47;2.38;;;1.83;;
20391;SDS011;10355;53.688;10.078;2022-09-13T00:06:30;2.22;;;1.85;;
20391;SDS011;10355;53.688;10.078;2022-09-13T00:09:12;4.30;;;1.80;;
20391;SDS011;10355;53.688;10.078;2022-09-13T00:11:57;2.30;;;1.90;;
20391;SDS011;10355;53.688;10.078;2022-09-13T00:14:39;3.00;;;1.77;;
20391;SDS011;10355;53.688;10.078;2022-09-13T00:17:22;3.17;;;1.73;;
20391;SDS011;10355;53.688;10.078;2022-09-13T00:20:05;2.85;;;2.00;;
20391;SDS011;10355;53.688;10.078;2022-09-13T00:22:48;2.25;;;1.80;;
20391;SDS011;10355;53.688;10.078;2022-09-13T00:25:31;3.70;;;1.95;;
20391;SDS011;10355;53.688;10.078;2022-09-13T00:28:15;3.08;;;1.90;;
20391;SDS011;10355;53.688;10.078;2022-09-13T00:30:59;3.47;;;1.90;;
20391;SDS011;10355;53.688;10.078;2022-09-13T00:33:41;2.33;;;1.70;;
20391;SDS011;10355;53.688;10.078;2022-09-13T00:36:24;3.70;;;2.05;;
20391;SDS011;10355;53.688;10.078;2022-09-13T00:39:07;3.42;;;1.85;;
20391;SDS011;10355;53.688;10.078;2022-09-13T00:41:50;4.32;;;2.00;;
20391;SDS011;10355;53.688;10.078;2022-09-13T00:47:42;3.95;;;2.10;;
20391;SDS011;10355;53.688;10.078;2022-09-13T00:50:27;4.82;;;2.30;;
20391;SDS011;10355;53.688;10.078;2022-09-13T00:53:12;4.97;;;1.90;;
20391;SDS011;10355;53.688;10.078;2022-09-13T00:55:57;3.05;;;2.10;;
20391;SDS011;10355;53.688;10.078;2022-09-13T00:58:46;4.72;;;1.90;;
20391;SDS011;10355;53.688;10.078;2022-09-13T01:01:31;3.22;;;2.17;;
20391;SDS011;10355;53.688;10.078;2022-09-13T01:04:16;2.40;;;2.10;;
20391;SDS011;10355;53.688;10.078;2022-09-13T01:06:59;5.07;;;2.40;;
20391;SDS011;10355;53.688;10.078;2022-09-13T01:09:44;4.07;;;2.03;;
20391;SDS011;10355;53.688;10.078;2022-09-13T01:12:29;3.47;;;2.00;;
20391;SDS011;10355;53.688;10.078;2022-09-13T01:15:13;3.00;;;1.98;;
20391;SDS011;10355;53.688;10.078;2022-09-13T01:17:56;3.42;;;2.50;;
20391;SDS011;10355;53.688;10.078;2022-09-13T01:20:44;3.13;;;2.40;;
20391;SDS011;10355;53.688;10.078;2022-09-13T01:26:41;5.18;;;2.40;;
20391;SDS011;10355;53.688;10.078;2022-09-13T01:29:34;4.35;;;2.13;;
20391;SDS011;10355;53.688;10.078;2022-09-13T01:32:23;3.50;;;2.38;;
20391;SDS011;10355;53.688;10.078;2022-09-13T01:35:12;4.30;;;2.20;;
20391;SDS011;10355;53.688;10.078;2022-09-13T01:38:00;4.80;;;2.28;;
20391;SDS011;10355;53.688;10.078;2022-09-13T01:40:47;4.47;;;2.30;;
20391;SDS011;10355;53.688;10.078;2022-09-13T01:43:41;4.53;;;2.30;;
20391;SDS011;10355;53.688;10.078;2022-09-13T01:46:29;2.83;;;2.10;;
20391;SDS011;10355;53.688;10.078;2022-09-13T01:49:15;3.42;;;2.47;;
20391;SDS011;10355;53.688;10.078;2022-09-13T01:52:00;3.65;;;2.20;;
20391;SDS011;10355;53.688;10.078;2022-09-13T01:54:47;3.80;;;2.40;;
20391;SDS011;10355;53.688;10.078;2022-09-13T01:57:34;3.28;;;2.05;;
20391;SDS011;10355;53.688;10.078;2022-09-13T02:00:20;3.60;;;2.47;;
20391;SDS011;10355;53.688;10.078;2022-09-13T02:03:03;3.97;;;2.55;;
20391;SDS011;10355;53.688;10.078;2022-09-13T02:05:50;5.25;;;2.60;;
20391;SDS011;10355;53.688;10.078;2022-09-13T02:08:36;4.25;;;2.38;;
20391;SDS011;10355;53.688;10.078;2022-09-13T02:11:20;4.72;;;2.40;;
20391;SDS011;10355;53.688;10.078;2022-09-13T02:14:04;2.60;;;2.15;;
20391;SDS011;10355;53.688;10.078;2022-09-13T02:16:49;4.00;;;2.33;;
20391;SDS011;10355;53.688;10.078;2022-09-13T02:19:34;4.65;;;2.65;;
20391;SDS011;10355;53.688;10.078;2022-09-13T02:22:21;4.55;;;2.83;;
20391;SDS011;10355;53.688;10.078;2022-09-13T02:25:06;3.35;;;2.70;;
20391;SDS011;10355;53.688;10.078;2022-09-13T02:27:52;3.05;;;2.30;;
20391;SDS011;10355;53.688;10.078;2022-09-13T02:30:40;3.33;;;2.40;;
20391;SDS011;10355;53.688;10.078;2022-09-13T02:33:25;4.13;;;2.72;;
20391;SDS011;10355;53.688;10.078;2022-09-13T02:36:11;4.22;;;2.70;;
20391;SDS011;10355;53.688;10.078;2022-09-13T02:38:56;4.38;;;2.55;;
20391;SDS011;10355;53.688;10.078;2022-09-13T02:41:42;2.97;;;2.40;;
20391;SDS011;10355;53.688;10.078;2022-09-13T02:44:30;4.60;;;2.60;;
20391;SDS011;10355;53.688;10.078;2022-09-13T02:47:28;4.03;;;2.70;;
20391;SDS011;10355;53.688;10.078;2022-09-13T02:53:14;3.85;;;2.53;;
20391;SDS011;10355;53.688;10.078;2022-09-13T02:56:01;5.38;;;2.85;;
20391;SDS011;10355;53.688;10.078;2022-09-13T02:58:49;6.85;;;3.08;;
20391;SDS011;10355;53.688;10.078;2022-09-13T03:01:33;5.22;;;2.80;;
20391;SDS011;10355;53.688;10.078;2022-09-13T03:04:17;4.65;;;2.78;;
20391;SDS011;10355;53.688;10.078;2022-09-13T03:07:00;5.97;;;2.88;;
20391;SDS011;10355;53.688;10.078;2022-09-13T03:09:45;4.32;;;2.80;;
20391;SDS011;10355;53.688;10.078;2022-09-13T03:12:41;7.63;;;2.92;;
20391;SDS011;10355;53.688;10.078;2022-09-13T03:15:28;4.47;;;3.00;;
20391;SDS011;10355;53.688;10.078;2022-09-13T03:18:18;5.00;;;2.90;;
20391;SDS011;10355;53.688;10.078;2022-09-13T03:21:10;4.30;;;3.15;;
20391;SDS011;10355;53.688;10.078;2022-09-13T03:23:54;4.38;;;2.50;;
20391;SDS011;10355;53.688;10.078;2022-09-13T03:26:43;4.70;;;3.03;;
20391;SDS011;10355;53.688;10.078;2022-09-13T03:29:30;4.88;;;3.47;;
20391;SDS011;10355;53.688;10.078;2022-09-13T03:32:17;5.43;;;3.58;;
20391;SDS011;10355;53.688;10.078;2022-09-13T03:35:03;4.63;;;3.05;;
20391;SDS011;10355;53.688;10.078;2022-09-13T03:37:49;6.70;;;3.05;;
20391;SDS011;10355;53.688;10.078;2022-09-13T03:40:38;6.10;;;3.50;;
20391;SDS011;10355;53.688;10.078;2022-09-13T03:43:23;7.35;;;3.72;;
20391;SDS011;10355;53.688;10.078;2022-09-13T03:46:08;6.85;;;3.50;;
20391;SDS011;10355;53.688;10.078;2022-09-13T03:48:53;7.03;;;3.80;;
20391;SDS011;10355;53.688;10.078;2022-09-13T03:51:36;7.07;;;3.80;;
20391;SDS011;10355;53.688;10.078;2022-09-13T03:54:21;5.93;;;3.83;;
20391;SDS011;10355;53.688;10.078;2022-09-13T03:57:05;6.78;;;3.88;;
20391;SDS011;10355;53.688;10.078;2022-09-13T03:59:49;6.43;;;3.67;;
20391;SDS011;10355;53.688;10.078;2022-09-13T04:02:34;6.03;;;3.72;;
20391;SDS011;10355;53.688;10.078;2022-09-13T04:05:17;5.07;;;3.33;;
20391;SDS011;10355;53.688;10.078;2022-09-13T04:07:59;7.47;;;4.10;;
20391;SDS011;10355;53.688;10.078;2022-09-13T04:10:42;4.88;;;3.58;;
20391;SDS011;10355;53.688;10.078;2022-09-13T04:13:25;7.80;;;4.13;;
20391;SDS011;10355;53.688;10.078;2022-09-13T04:16:08;6.50;;;3.78;;
20391;SDS011;10355;53.688;10.078;2022-09-13T04:18:52;9.52;;;4.43;;
20391;SDS011;10355;53.688;10.078;2022-09-13T04:21:35;6.90;;;4.53;;
20391;SDS011;10355;53.688;10.078;2022-09-13T04:24:18;7.75;;;4.88;;
20391;SDS011;10355;53.688;10.078;2022-09-13T04:27:01;8.45;;;4.63;;
20391;SDS011;10355;53.688;10.078;2022-09-13T04:29:44;7.97;;;5.05;;
20391;SDS011;10355;53.688;10.078;2022-09-13T04:32:27;8.73;;;5.30;;
20391;SDS011;10355;53.688;10.078;2022-09-13T04:35:11;8.77;;;5.03;;
20391;SDS011;10355;53.688;10.078;2022-09-13T04:37:54;9.23;;;5.43;;
20391;SDS011;10355;53.688;10.078;2022-09-13T04:40:36;8.05;;;5.47;;
20391;SDS011;10355;53.688;10.078;2022-09-13T04:43:19;11.65;;;5.70;;
20391;SDS011;10355;53.688;10.078;2022-09-13T04:46:02;9.60;;;5.95;;
20391;SDS011;10355;53.688;10.078;2022-09-13T04:48:48;11.15;;;6.18;;
20391;SDS011;10355;53.688;10.078;2022-09-13T04:51:32;9.75;;;6.13;;
20391;SDS011;10355;53.688;10.078;2022-09-13T04:54:15;10.27;;;6.38;;
20391;SDS011;10355;53.688;10.078;2022-09-13T04:56:57;11.88;;;6.57;;
20391;SDS011;10355;53.688;10.078;2022-09-13T04:59:40;12.48;;;7.18;;
20391;SDS011;10355;53.688;10.078;2022-09-13T05:02:23;10.55;;;6.32;;
20391;SDS011;10355;53.688;10.078;2022-09-13T05:05:06;12.18;;;6.97;;
20391;SDS011;10355;53.688;10.078;2022-09-13T05:07:50;13.40;;;7.32;;
20391;SDS011;10355;53.688;10.078;2022-09-13T05:10:33;15.77;;;8.50;;
20391;SDS011;10355;53.688;10.078;2022-09-13T05:13:15;13.32;;;7.50;;
20391;SDS011;10355;53.688;10.078;2022-09-13T05:15:59;12.57;;;7.93;;
20391;SDS011;10355;53.688;10.078;2022-09-13T05:18:41;15.40;;;8.45;;
20391;SDS011;10355;53.688;10.078;2022-09-13T05:21:25;14.70;;;8.18;;
20391;SDS011;10355;53.688;10.078;2022-09-13T05:24:10;15.13;;;7.65;;
20391;SDS011;10355;53.688;10.078;2022-09-13T05:26:53;15.65;;;7.72;;
20391;SDS011;10355;53.688;10.078;2022-09-13T05:29:35;17.02;;;8.32;;
20391;SDS011;10355;53.688;10.078;2022-09-13T05:32:18;14.60;;;8.32;;
20391;SDS011;10355;53.688;10.078;2022-09-13T05:35:01;14.50;;;8.15;;
20391;SDS011;10355;53.688;10.078;2022-09-13T05:37:44;14.13;;;8.32;;
20391;SDS011;10355;53.688;10.078;2022-09-13T05:40:28;13.98;;;8.05;;
20391;SDS011;10355;53.688;10.078;2022-09-13T05:43:11;17.55;;;9.38;;
20391;SDS011;10355;53.688;10.078;2022-09-13T05:45:59;17.08;;;8.43;;
20391;SDS011;10355;53.688;10.078;2022-09-13T05:48:42;17.98;;;9.13;;
20391;SDS011;10355;53.688;10.078;2022-09-13T05:51:25;15.82;;;8.60;;
20391;SDS011;10355;53.688;10.078;2022-09-13T05:54:09;16.20;;;8.52;;
20391;SDS011;10355;53.688;10.078;2022-09-13T05:56:53;19.35;;;9.45;;
20391;SDS011;10355;53.688;10.078;2022-09-13T05:59:37;13.32;;;7.25;;
20391;SDS011;10355;53.688;10.078;2022-09-13T06:02:20;14.35;;;8.20;;
20391;SDS011;10355;53.688;10.078;2022-09-13T06:05:03;12.68;;;7.57;;
20391;SDS011;10355;53.688;10.078;2022-09-13T06:07:46;13.00;;;8.13;;
20391;SDS011;10355;53.688;10.078;2022-09-13T06:10:29;13.63;;;7.70;;
20391;SDS011;10355;53.688;10.078;2022-09-13T06:13:13;15.68;;;8.05;;
20391;SDS011;10355;53.688;10.078;2022-09-13T06:15:57;14.25;;;8.05;;
20391;SDS011;10355;53.688;10.078;2022-09-13T06:18:40;13.00;;;7.88;;
20391;SDS011;10355;53.688;10.078;2022-09-13T06:21:23;14.32;;;7.68;;
20391;SDS011;10355;53.688;10.078;2022-09-13T06:24:09;11.57;;;6.80;;
20391;SDS011;10355;53.688;10.078;2022-09-13T06:26:52;14.13;;;7.75;;
20391;SDS011;10355;53.688;10.078;2022-09-13T06:29:36;12.57;;;7.05;;
20391;SDS011;10355;53.688;10.078;2022-09-13T06:32:19;12.10;;;6.88;;
20391;SDS011;10355;53.688;10.078;2022-09-13T06:35:02;13.57;;;7.38;;
20391;SDS011;10355;53.688;10.078;2022-09-13T06:37:45;11.85;;;6.88;;
20391;SDS011;10355;53.688;10.078;2022-09-13T06:40:27;13.63;;;6.47;;
20391;SDS011;10355;53.688;10.078;2022-09-13T06:43:10;13.02;;;6.55;;
20391;SDS011;10355;53.688;10.078;2022-09-13T06:45:57;13.32;;;7.13;;
20391;SDS011;10355;53.688;10.078;2022-09-13T06:48:41;11.02;;;6.72;;
20391;SDS011;10355;53.688;10.078;2022-09-13T06:51:24;13.80;;;6.55;;
20391;SDS011;10355;53.688;10.078;2022-09-13T06:54:07;13.00;;;6.70;;
20391;SDS011;10355;53.688;10.078;2022-09-13T06:56:50;12.13;;;6.07;;
20391;SDS011;10355;53.688;10.078;2022-09-13T06:59:32;12.27;;;5.75;;
20391;SDS011;10355;53.688;10.078;2022-09-13T07:02:17;10.68;;;6.00;;
20391;SDS011;10355;53.688;10.078;2022-09-13T07:05:00;9.88;;;5.43;;
20391;SDS011;10355;53.688;10.078;2022-09-13T07:07:42;9.52;;;5.60;;
20391;SDS011;10355;53.688;10.078;2022-09-13T07:10:25;9.68;;;5.13;;
20391;SDS011;10355;53.688;10.078;2022-09-13T07:13:08;10.98;;;5.60;;
20391;SDS011;10355;53.688;10.078;2022-09-13T07:15:51;9.10;;;5.60;;
20391;SDS011;10355;53.688;10.078;2022-09-13T07:18:35;13.88;;;5.47;;
20391;SDS011;10355;53.688;10.078;2022-09-13T07:21:18;10.65;;;5.35;;
20391;SDS011;10355;53.688;10.078;2022-09-13T07:24:01;11.85;;;5.45;;
20391;SDS011;10355;53.688;10.078;2022-09-13T07:26:44;10.55;;;5.65;;
20391;SDS011;10355;53.688;10.078;2022-09-13T07:29:27;10.73;;;5.45;;
20391;SDS011;10355;53.688;10.078;2022-09-13T07:32:10;9.82;;;5.18;;
20391;SDS011;10355;53.688;10.078;2022-09-13T07:34:53;9.18;;;4.88;;
20391;SDS011;10355;53.688;10.078;2022-09-13T07:37:36;12.00;;;5.00;;
20391;SDS011;10355;53.688;10.078;2022-09-13T07:40:19;9.77;;;4.97;;
20391;SDS011;10355;53.688;10.078;2022-09-13T07:43:02;9.35;;;4.68;;
20391;SDS011;10355;53.688;10.078;2022-09-13T07:45:44;7.45;;;3.80;;
20391;SDS011;10355;53.688;10.078;2022-09-13T07:48:28;8.20;;;4.30;;
20391;SDS011;10355;53.688;10.078;2022-09-13T07:51:16;7.95;;;3.95;;
20391;SDS011;10355;53.688;10.078;2022-09-13T07:53:59;9.73;;;4.05;;
20391;SDS011;10355;53.688;10.078;2022-09-13T07:56:42;6.15;;;3.25;;
20391;SDS011;10355;53.688;10.078;2022-09-13T07:59:25;9.25;;;3.40;;
20391;SDS011;10355;53.688;10.078;2022-09-13T08:02:10;8.13;;;3.42;;
20391;SDS011;10355;53.688;10.078;2022-09-13T08:04:53;5.40;;;2.88;;
20391;SDS011;10355;53.688;10.078;2022-09-13T08:07:37;6.40;;;3.30;;
20391;SDS011;10355;53.688;10.078;2022-09-13T08:10:20;8.05;;;2.60;;
20391;SDS011;10355;53.688;10.078;2022-09-13T08:13:03;6.72;;;2.40;;
20391;SDS011;10355;53.688;10.078;2022-09-13T08:15:45;6.70;;;2.45;;
20391;SDS011;10355;53.688;10.078;2022-09-13T08:18:29;6.75;;;2.38;;
20391;SDS011;10355;53.688;10.078;2022-09-13T08:21:12;4.32;;;2.20;;
20391;SDS011;10355;53.688;10.078;2022-09-13T08:23:56;5.97;;;2.05;;
20391;SDS011;10355;53.688;10.078;2022-09-13T08:26:41;3.70;;;1.85;;
20391;SDS011;10355;53.688;10.078;2022-09-13T08:29:24;3.75;;;1.80;;
20391;SDS011;10355;53.688;10.078;2022-09-13T08:32:06;7.00;;;1.88;;
20391;SDS011;10355;53.688;10.078;2022-09-13T08:34:49;5.60;;;1.45;;
20391;SDS011;10355;53.688;10.078;2022-09-13T08:37:33;3.58;;;0.80;;
20391;SDS011;10355;53.688;10.078;2022-09-13T08:40:17;4.10;;;0.90;;
20391;SDS011;10355;53.688;10.078;2022-09-13T08:43:01;6.45;;;0.80;;
20391;SDS011;10355;53.688;10.078;2022-09-13T08:45:48;3.30;;;0.75;;
20391;SDS011;10355;53.688;10.078;2022-09-13T08:48:32;3.30;;;0.80;;
20391;SDS011;10355;53.688;10.078;2022-09-13T08:51:21;2.25;;;0.50;;
20391;SDS011;10355;53.688;10.078;2022-09-13T08:54:07;3.05;;;0.75;;
20391;SDS011;10355;53.688;10.078;2022-09-13T08:56:54;4.13;;;0.65;;
20391;SDS011;10355;53.688;10.078;2022-09-13T08:59:43;5.40;;;0.50;;
20391;SDS011;10355;53.688;10.078;2022-09-13T09:02:33;3.47;;;0.80;;
20391;SDS011;10355;53.688;10.078;2022-09-13T09:05:23;4.47;;;0.68;;
20391;SDS011;10355;53.688;10.078;2022-09-13T09:08:13;4.60;;;0.70;;
20391;SDS011;10355;53.688;10.078;2022-09-13T09:10:57;3.58;;;0.50;;
20391;SDS011;10355;53.688;10.078;2022-09-13T09:13:44;4.75;;;0.80;;
20391;SDS011;10355;53.688;10.078;2022-09-13T09:16:31;3.83;;;0.57;;
20391;SDS011;10355;53.688;10.078;2022-09-13T09:19:16;2.67;;;0.50;;
20391;SDS011;10355;53.688;10.078;2022-09-13T09:22:03;2.67;;;0.47;;
20391;SDS011;10355;53.688;10.078;2022-09-13T09:24:48;3.28;;;0.60;;
20391;SDS011;10355;53.688;10.078;2022-09-13T09:27:32;2.47;;;0.50;;
20391;SDS011;10355;53.688;10.078;2022-09-13T09:30:16;1.67;;;0.60;;
20391;SDS011;10355;53.688;10.078;2022-09-13T09:33:02;2.33;;;0.43;;
20391;SDS011;10355;53.688;10.078;2022-09-13T09:35:50;3.25;;;0.45;;
20391;SDS011;10355;53.688;10.078;2022-09-13T09:38:37;1.88;;;0.45;;
20391;SDS011;10355;53.688;10.078;2022-09-13T09:41:24;3.80;;;0.55;;
20391;SDS011;10355;53.688;10.078;2022-09-13T09:44:12;2.25;;;0.47;;
20391;SDS011;10355;53.688;10.078;2022-09-13T09:47:00;5.55;;;0.75;;
20391;SDS011;10355;53.688;10.078;2022-09-13T09:49:45;3.10;;;0.47;;
20391;SDS011;10355;53.688;10.078;2022-09-13T09:52:47;2.60;;;0.52;;
20391;SDS011;10355;53.688;10.078;2022-09-13T09:55:34;3.92;;;0.70;;
20391;SDS011;10355;53.688;10.078;2022-09-13T09:58:23;4.28;;;0.65;;
20391;SDS011;10355;53.688;10.078;2022-09-13T10:01:21;4.18;;;0.63;;
20391;SDS011;10355;53.688;10.078;2022-09-13T10:04:14;4.65;;;1.00;;
20391;SDS011;10355;53.688;10.078;2022-09-13T10:07:10;5.32;;;0.50;;
20391;SDS011;10355;53.688;10.078;2022-09-13T10:09:58;3.10;;;0.60;;
20391;SDS011;10355;53.688;10.078;2022-09-13T10:12:44;5.13;;;0.90;;
20391;SDS011;10355;53.688;10.078;2022-09-13T10:15:30;3.45;;;0.60;;
20391;SDS011;10355;53.688;10.078;2022-09-13T10:18:14;4.50;;;0.70;;
20391;SDS011;10355;53.688;10.078;2022-09-13T10:21:22;3.70;;;0.60;;
20391;SDS011;10355;53.688;10.078;2022-09-13T10:24:14;6.35;;;0.50;;
20391;SDS011;10355;53.688;10.078;2022-09-13T10:26:57;5.13;;;0.70;;
20391;SDS011;10355;53.688;10.078;2022-09-13T10:29:42;3.42;;;0.70;;
20391;SDS011;10355;53.688;10.078;2022-09-13T10:32:29;3.10;;;0.68;;
20391;SDS011;10355;53.688;10.078;2022-09-13T10:35:14;2.63;;;0.60;;
20391;SDS011;10355;53.688;10.078;2022-09-13T10:37:59;5.78;;;1.00;;
20391;SDS011;10355;53.688;10.078;2022-09-13T10:40:42;4.25;;;0.60;;
20391;SDS011;10355;53.688;10.078;2022-09-13T10:43:29;1.15;;;0.40;;
20391;SDS011;10355;53.688;10.078;2022-09-13T10:46:13;3.40;;;0.80;;
20391;SDS011;10355;53.688;10.078;2022-09-13T10:48:57;3.25;;;1.00;;
20391;SDS011;10355;53.688;10.078;2022-09-13T10:51:40;1.95;;;0.50;;
20391;SDS011;10355;53.688;10.078;2022-09-13T10:54:24;2.13;;;0.57;;
20391;SDS011;10355;53.688;10.078;2022-09-13T10:57:13;3.75;;;0.60;;
20391;SDS011;10355;53.688;10.078;2022-09-13T11:00:08;2.13;;;0.50;;
20391;SDS011;10355;53.688;10.078;2022-09-13T11:02:58;5.68;;;0.95;;
20391;SDS011;10355;53.688;10.078;2022-09-13T11:05:47;5.35;;;0.60;;
20391;SDS011;10355;53.688;10.078;2022-09-13T11:08:36;2.03;;;0.70;;
20391;SDS011;10355;53.688;10.078;2022-09-13T11:11:26;4.18;;;0.75;;
20391;SDS011;10355;53.688;10.078;2022-09-13T11:14:15;4.60;;;0.70;;
20391;SDS011;10355;53.688;10.078;2022-09-13T11:17:01;2.05;;;0.65;;
20391;SDS011;10355;53.688;10.078;2022-09-13T11:19:50;5.75;;;0.65;;
20391;SDS011;10355;53.688;10.078;2022-09-13T11:22:43;3.08;;;0.50;;
20391;SDS011;10355;53.688;10.078;2022-09-13T11:25:30;2.92;;;0.82;;
20391;SDS011;10355;53.688;10.078;2022-09-13T11:28:16;4.78;;;0.50;;
20391;SDS011;10355;53.688;10.078;2022-09-13T11:31:12;2.67;;;0.70;;
20391;SDS011;10355;53.688;10.078;2022-09-13T11:34:04;4.97;;;0.70;;
20391;SDS011;10355;53.688;10.078;2022-09-13T11:36:54;4.60;;;0.70;;
20391;SDS011;10355;53.688;10.078;2022-09-13T11:39:41;5.57;;;0.65;;
20391;SDS011;10355;53.688;10.078;2022-09-13T11:42:31;3.72;;;0.70;;
20391;SDS011;10355;53.688;10.078;2022-09-13T11:45:19;3.05;;;0.60;;
20391;SDS011;10355;53.688;10.078;2022-09-13T11:48:09;4.68;;;0.55;;
20391;SDS011;10355;53.688;10.078;2022-09-13T11:50:56;3.22;;;0.65;;
20391;SDS011;10355;53.688;10.078;2022-09-13T11:53:45;4.32;;;0.60;;
20391;SDS011;10355;53.688;10.078;2022-09-13T11:56:32;4.78;;;0.73;;
20391;SDS011;10355;53.688;10.078;2022-09-13T11:59:18;6.43;;;0.88;;
20391;SDS011;10355;53.688;10.078;2022-09-13T12:02:04;4.25;;;0.50;;
20391;SDS011;10355;53.688;10.078;2022-09-13T12:04:55;3.08;;;0.52;;
20391;SDS011;10355;53.688;10.078;2022-09-13T12:08:00;1.90;;;0.43;;
20391;SDS011;10355;53.688;10.078;2022-09-13T12:10:45;5.45;;;0.73;;
20391;SDS011;10355;53.688;10.078;2022-09-13T12:13:29;3.83;;;0.75;;
20391;SDS011;10355;53.688;10.078;2022-09-13T12:16:14;3.75;;;0.70;;
20391;SDS011;10355;53.688;10.078;2022-09-13T12:19:01;2.72;;;0.50;;
20391;SDS011;10355;53.688;10.078;2022-09-13T12:21:44;4.25;;;0.80;;
20391;SDS011;10355;53.688;10.078;2022-09-13T12:24:30;5.43;;;0.55;;
20391;SDS011;10355;53.688;10.078;2022-09-13T12:27:19;6.85;;;0.88;;
20391;SDS011;10355;53.688;10.078;2022-09-13T12:30:05;5.55;;;0.55;;
20391;SDS011;10355;53.688;10.078;2022-09-13T12:32:49;3.38;;;0.75;;
20391;SDS011;10355;53.688;10.078;2022-09-13T12:35:42;2.75;;;0.45;;
20391;SDS011;10355;53.688;10.078;2022-09-13T12:41:45;5.35;;;0.70;;
20391;SDS011;10355;53.688;10.078;2022-09-13T12:44:39;1.48;;;0.40;;
20391;SDS011;10355;53.688;10.078;2022-09-13T12:47:42;1.70;;;0.57;;
20391;SDS011;10355;53.688;10.078;2022-09-13T12:59:31;3.88;;;0.50;;
20391;SDS011;10355;53.688;10.078;2022-09-13T13:02:22;3.42;;;0.90;;
20391;SDS011;10355;53.688;10.078;2022-09-13T13:05:14;5.85;;;0.65;;
20391;SDS011;10355;53.688;10.078;2022-09-13T13:08:00;2.38;;;0.60;;
20391;SDS011;10355;53.688;10.078;2022-09-13T13:10:43;2.67;;;0.60;;
20391;SDS011;10355;53.688;10.078;2022-09-13T13:13:29;1.77;;;0.52;;
20391;SDS011;10355;53.688;10.078;2022-09-13T13:16:22;3.35;;;0.57;;
20391;SDS011;10355;53.688;10.078;2022-09-13T13:19:26;3.22;;;0.50;;
20391;SDS011;10355;53.688;10.078;2022-09-13T13:25:25;2.38;;;0.50;;
20391;SDS011;10355;53.688;10.078;2022-09-13T13:31:09;5.50;;;0.70;;
20391;SDS011;10355;53.688;10.078;2022-09-13T13:33:54;3.08;;;0.80;;
20391;SDS011;10355;53.688;10.078;2022-09-13T13:36:42;2.30;;;0.60;;
20391;SDS011;10355;53.688;10.078;2022-09-13T13:39:36;3.67;;;0.40;;
20391;SDS011;10355;53.688;10.078;2022-09-13T13:42:23;5.75;;;0.95;;
20391;SDS011;10355;53.688;10.078;2022-09-13T13:45:14;3.42;;;0.70;;
20391;SDS011;10355;53.688;10.078;2022-09-13T13:48:12;2.65;;;0.47;;
20391;SDS011;10355;53.688;10.078;2022-09-13T13:51:13;2.03;;;0.50;;
20391;SDS011;10355;53.688;10.078;2022-09-13T13:54:00;2.97;;;0.90;;
20391;SDS011;10355;53.688;10.078;2022-09-13T13:56:44;2.40;;;0.50;;
20391;SDS011;10355;53.688;10.078;2022-09-13T13:59:29;5.93;;;0.52;;
20391;SDS011;10355;53.688;10.078;2022-09-13T14:02:13;4.32;;;0.60;;
20391;SDS011;10355;53.688;10.078;2022-09-13T14:04:59;2.33;;;0.60;;
20391;SDS011;10355;53.688;10.078;2022-09-13T14:07:59;4.60;;;0.52;;
20391;SDS011;10355;53.688;10.078;2022-09-13T14:10:46;4.57;;;0.50;;
20391;SDS011;10355;53.688;10.078;2022-09-13T14:13:35;4.25;;;0.63;;
20391;SDS011;10355;53.688;10.078;2022-09-13T14:16:24;5.22;;;0.93;;
20391;SDS011;10355;53.688;10.078;2022-09-13T14:19:18;3.28;;;0.80;;
20391;SDS011;10355;53.688;10.078;2022-09-13T14:22:05;6.95;;;0.90;;
20391;SDS011;10355;53.688;10.078;2022-09-13T14:24:50;4.72;;;0.77;;
20391;SDS011;10355;53.688;10.078;2022-09-13T14:27:33;4.10;;;0.80;;
20391;SDS011;10355;53.688;10.078;2022-09-13T14:30:18;5.18;;;0.73;;
20391;SDS011;10355;53.688;10.078;2022-09-13T14:33:02;7.65;;;0.65;;
20391;SDS011;10355;53.688;10.078;2022-09-13T14:35:45;3.97;;;0.70;;
20391;SDS011;10355;53.688;10.078;2022-09-13T14:38:29;3.78;;;0.50;;
20391;SDS011;10355;53.688;10.078;2022-09-13T14:41:16;2.70;;;0.50;;
20391;SDS011;10355;53.688;10.078;2022-09-13T14:44:15;8.43;;;0.80;;
20391;SDS011;10355;53.688;10.078;2022-09-13T14:47:06;3.10;;;0.43;;
20391;SDS011;10355;53.688;10.078;2022-09-13T14:49:51;4.88;;;0.80;;
20391;SDS011;10355;53.688;10.078;2022-09-13T14:52:36;3.22;;;0.68;;
20391;SDS011;10355;53.688;10.078;2022-09-13T14:55:20;5.20;;;0.63;;
20391;SDS011;10355;53.688;10.078;2022-09-13T14:58:06;4.43;;;0.70;;
20391;SDS011;10355;53.688;10.078;2022-09-13T15:00:50;3.13;;;0.60;;
20391;SDS011;10355;53.688;10.078;2022-09-13T15:03:34;4.45;;;0.70;;
20391;SDS011;10355;53.688;10.078;2022-09-13T15:06:21;4.35;;;0.60;;
20391;SDS011;10355;53.688;10.078;2022-09-13T15:09:15;3.53;;;0.40;;
20391;SDS011;10355;53.688;10.078;2022-09-13T15:11:59;3.60;;;0.82;;
20391;SDS011;10355;53.688;10.078;2022-09-13T15:14:44;4.22;;;0.57;;
20391;SDS011;10355;53.688;10.078;2022-09-13T15:17:28;2.50;;;0.50;;
20391;SDS011;10355;53.688;10.078;2022-09-13T15:20:11;2.60;;;0.75;;
20391;SDS011;10355;53.688;10.078;2022-09-13T15:22:54;3.35;;;0.77;;
20391;SDS011;10355;53.688;10.078;2022-09-13T15:25:37;4.88;;;0.50;;
20391;SDS011;10355;53.688;10.078;2022-09-13T15:28:24;6.13;;;0.88;;
20391;SDS011;10355;53.688;10.078;2022-09-13T15:31:08;8.10;;;0.77;;
20391;SDS011;10355;53.688;10.078;2022-09-13T15:37:00;2.03;;;0.57;;
20391;SDS011;10355;53.688;10.078;2022-09-13T15:39:44;4.05;;;0.70;;
20391;SDS011;10355;53.688;10.078;2022-09-13T15:42:28;6.95;;;0.80;;
20391;SDS011;10355;53.688;10.078;2022-09-13T15:45:11;6.07;;;0.70;;
20391;SDS011;10355;53.688;10.078;2022-09-13T15:47:55;4.60;;;0.50;;
20391;SDS011;10355;53.688;10.078;2022-09-13T15:50:38;5.68;;;0.63;;
20391;SDS011;10355;53.688;10.078;2022-09-13T15:53:22;2.03;;;0.55;;
20391;SDS011;10355;53.688;10.078;2022-09-13T15:56:08;1.75;;;0.47;;
20391;SDS011;10355;53.688;10.078;2022-09-13T15:58:51;4.82;;;0.60;;
20391;SDS011;10355;53.688;10.078;2022-09-13T16:01:33;2.58;;;0.60;;
20391;SDS011;10355;53.688;10.078;2022-09-13T16:04:17;1.88;;;0.45;;
20391;SDS011;10355;53.688;10.078;2022-09-13T16:07:00;3.70;;;0.60;;
20391;SDS011;10355;53.688;10.078;2022-09-13T16:09:43;4.45;;;0.77;;
20391;SDS011;10355;53.688;10.078;2022-09-13T16:12:26;4.43;;;0.70;;
20391;SDS011;10355;53.688;10.078;2022-09-13T16:15:09;7.55;;;0.70;;
20391;SDS011;10355;53.688;10.078;2022-09-13T16:17:53;4.35;;;0.60;;
20391;SDS011;10355;53.688;10.078;2022-09-13T16:20:37;1.52;;;0.40;;
20391;SDS011;10355;53.688;10.078;2022-09-13T16:23:19;1.95;;;0.40;;
20391;SDS011;10355;53.688;10.078;2022-09-13T16:26:02;2.35;;;0.45;;
20391;SDS011;10355;53.688;10.078;2022-09-13T16:28:48;3.30;;;0.40;;
20391;SDS011;10355;53.688;10.078;2022-09-13T16:31:31;4.28;;;0.50;;
20391;SDS011;10355;53.688;10.078;2022-09-13T16:34:14;3.55;;;0.40;;
20391;SDS011;10355;53.688;10.078;2022-09-13T16:36:58;2.20;;;0.60;;
20391;SDS011;10355;53.688;10.078;2022-09-13T16:39:41;2.72;;;0.50;;
20391;SDS011;10355;53.688;10.078;2022-09-13T16:42:25;1.20;;;0.30;;
20391;SDS011;10355;53.688;10.078;2022-09-13T16:45:09;2.35;;;0.40;;
20391;SDS011;10355;53.688;10.078;2022-09-13T16:47:52;1.35;;;0.30;;
20391;SDS011;10355;53.688;10.078;2022-09-13T16:50:37;2.88;;;0.40;;
20391;SDS011;10355;53.688;10.078;2022-09-13T16:53:21;1.35;;;0.40;;